sensor_id;sensor_type;location;lat;lon;timestamp;temperature;humidity
74087;SHT30;62445;48.406;-4.518;2022-08-19T00:00:39;25.89;56.95
74087;SHT30;62445;48.406;-4.518;2022-08-19T00:03:05;25.89;56.91
74087;SHT30;62445;48.406;-4.518;2022-08-19T00:05:32;25.89;56.85
74087;SHT30;62445;48.406;-4.518;2022-08-19T00:07:57;25.89;56.90
74087;SHT30;62445;48.406;-4.518;2022-08-19T00:10:23;25.92;56.85
74087;SHT30;62445;48.406;-4.518;2022-08-19T00:12:49;25.88;56.89
74087;SHT30;62445;48.406;-4.518;2022-08-19T00:15:18;25.89;56.89
74087;SHT30;62445;48.406;-4.518;2022-08-19T00:17:44;25.90;56.87
74087;SHT30;62445;48.406;-4.518;2022-08-19T00:20:19;25.90;56.81
74087;SHT30;62445;48.406;-4.518;2022-08-19T00:22:46;25.89;56.92
74087;SHT30;62445;48.406;-4.518;2022-08-19T00:25:13;25.89;56.86
74087;SHT30;62445;48.406;-4.518;2022-08-19T00:27:40;25.89;56.86
74087;SHT30;62445;48.406;-4.518;2022-08-19T00:30:06;25.89;56.87
74087;SHT30;62445;48.406;-4.518;2022-08-19T00:32:32;25.90;56.84
74087;SHT30;62445;48.406;-4.518;2022-08-19T00:34:59;25.89;56.83
74087;SHT30;62445;48.406;-4.518;2022-08-19T00:37:25;25.90;56.84
74087;SHT30;62445;48.406;-4.518;2022-08-19T00:39:51;25.89;56.85
74087;SHT30;62445;48.406;-4.518;2022-08-19T00:42:18;25.90;56.87
74087;SHT30;62445;48.406;-4.518;2022-08-19T00:44:43;25.89;56.90
74087;SHT30;62445;48.406;-4.518;2022-08-19T00:47:09;25.86;56.90
74087;SHT30;62445;48.406;-4.518;2022-08-19T00:49:52;25.89;56.79
74087;SHT30;62445;48.406;-4.518;2022-08-19T00:52:22;25.90;56.88
74087;SHT30;62445;48.406;-4.518;2022-08-19T00:54:50;25.88;56.93
74087;SHT30;62445;48.406;-4.518;2022-08-19T00:57:18;25.88;56.92
74087;SHT30;62445;48.406;-4.518;2022-08-19T00:59:51;25.88;56.91
74087;SHT30;62445;48.406;-4.518;2022-08-19T01:02:18;25.88;56.92
74087;SHT30;62445;48.406;-4.518;2022-08-19T01:04:43;25.88;56.91
74087;SHT30;62445;48.406;-4.518;2022-08-19T01:07:09;25.86;56.95
74087;SHT30;62445;48.406;-4.518;2022-08-19T01:09:35;25.88;56.89
74087;SHT30;62445;48.406;-4.518;2022-08-19T01:12:01;25.88;56.93
74087;SHT30;62445;48.406;-4.518;2022-08-19T01:14:27;25.89;56.92
74087;SHT30;62445;48.406;-4.518;2022-08-19T01:16:55;25.88;56.91
74087;SHT30;62445;48.406;-4.518;2022-08-19T01:19:26;25.86;56.89
74087;SHT30;62445;48.406;-4.518;2022-08-19T01:22:01;25.86;56.82
74087;SHT30;62445;48.406;-4.518;2022-08-19T01:24:27;25.86;56.89
74087;SHT30;62445;48.406;-4.518;2022-08-19T01:26:53;25.86;56.88
74087;SHT30;62445;48.406;-4.518;2022-08-19T01:29:19;25.85;57.00
74087;SHT30;62445;48.406;-4.518;2022-08-19T01:31:44;25.86;56.88
74087;SHT30;62445;48.406;-4.518;2022-08-19T01:34:10;25.88;56.90
74087;SHT30;62445;48.406;-4.518;2022-08-19T01:36:42;25.85;56.86
74087;SHT30;62445;48.406;-4.518;2022-08-19T01:39:14;25.83;56.90
74087;SHT30;62445;48.406;-4.518;2022-08-19T01:41:39;25.86;56.96
74087;SHT30;62445;48.406;-4.518;2022-08-19T01:44:06;25.83;56.90
74087;SHT30;62445;48.406;-4.518;2022-08-19T01:46:32;25.86;56.93
74087;SHT30;62445;48.406;-4.518;2022-08-19T01:48:58;25.86;56.93
74087;SHT30;62445;48.406;-4.518;2022-08-19T01:51:23;25.85;56.89
74087;SHT30;62445;48.406;-4.518;2022-08-19T01:53:50;25.85;56.89
74087;SHT30;62445;48.406;-4.518;2022-08-19T01:56:17;25.83;56.92
74087;SHT30;62445;48.406;-4.518;2022-08-19T01:58:47;25.83;56.85
74087;SHT30;62445;48.406;-4.518;2022-08-19T02:01:15;25.85;56.91
74087;SHT30;62445;48.406;-4.518;2022-08-19T02:03:41;25.85;56.91
74087;SHT30;62445;48.406;-4.518;2022-08-19T02:06:07;25.85;56.93
74087;SHT30;62445;48.406;-4.518;2022-08-19T02:08:35;25.82;56.88
74087;SHT30;62445;48.406;-4.518;2022-08-19T02:11:01;25.83;56.88
74087;SHT30;62445;48.406;-4.518;2022-08-19T02:13:27;25.83;56.91
74087;SHT30;62445;48.406;-4.518;2022-08-19T02:15:53;25.85;56.95
74087;SHT30;62445;48.406;-4.518;2022-08-19T02:18:18;25.85;56.86
74087;SHT30;62445;48.406;-4.518;2022-08-19T02:20:44;25.80;56.99
74087;SHT30;62445;48.406;-4.518;2022-08-19T02:23:13;25.82;56.96
74087;SHT30;62445;48.406;-4.518;2022-08-19T02:25:39;25.80;56.97
74087;SHT30;62445;48.406;-4.518;2022-08-19T02:28:05;25.82;57.08
74087;SHT30;62445;48.406;-4.518;2022-08-19T02:30:31;25.82;57.04
74087;SHT30;62445;48.406;-4.518;2022-08-19T02:32:57;25.79;57.02
74087;SHT30;62445;48.406;-4.518;2022-08-19T02:35:23;25.78;57.15
74087;SHT30;62445;48.406;-4.518;2022-08-19T02:37:49;25.78;57.06
74087;SHT30;62445;48.406;-4.518;2022-08-19T02:40:34;25.76;57.04
74087;SHT30;62445;48.406;-4.518;2022-08-19T02:43:04;25.79;57.04
74087;SHT30;62445;48.406;-4.518;2022-08-19T02:45:34;25.79;57.05
74087;SHT30;62445;48.406;-4.518;2022-08-19T02:48:00;25.78;57.07
74087;SHT30;62445;48.406;-4.518;2022-08-19T02:50:26;25.76;56.98
74087;SHT30;62445;48.406;-4.518;2022-08-19T02:52:51;25.78;56.92
74087;SHT30;62445;48.406;-4.518;2022-08-19T02:55:17;25.76;56.93
74087;SHT30;62445;48.406;-4.518;2022-08-19T02:57:42;25.76;56.88
74087;SHT30;62445;48.406;-4.518;2022-08-19T03:00:08;25.76;56.85
74087;SHT30;62445;48.406;-4.518;2022-08-19T03:02:38;25.78;56.81
74087;SHT30;62445;48.406;-4.518;2022-08-19T03:05:04;25.75;56.87
74087;SHT30;62445;48.406;-4.518;2022-08-19T03:07:30;25.76;56.84
74087;SHT30;62445;48.406;-4.518;2022-08-19T03:09:56;25.76;56.78
74087;SHT30;62445;48.406;-4.518;2022-08-19T03:12:21;25.73;56.77
74087;SHT30;62445;48.406;-4.518;2022-08-19T03:14:46;25.75;56.83
74087;SHT30;62445;48.406;-4.518;2022-08-19T03:17:12;25.75;56.75
74087;SHT30;62445;48.406;-4.518;2022-08-19T03:19:38;25.70;56.73
74087;SHT30;62445;48.406;-4.518;2022-08-19T03:22:03;25.73;56.71
74087;SHT30;62445;48.406;-4.518;2022-08-19T03:24:30;25.75;56.73
74087;SHT30;62445;48.406;-4.518;2022-08-19T03:26:56;25.72;56.76
74087;SHT30;62445;48.406;-4.518;2022-08-19T03:29:26;25.73;56.74
74087;SHT30;62445;48.406;-4.518;2022-08-19T03:31:53;25.72;56.77
74087;SHT30;62445;48.406;-4.518;2022-08-19T03:34:23;25.73;56.71
74087;SHT30;62445;48.406;-4.518;2022-08-19T03:36:53;25.72;56.71
74087;SHT30;62445;48.406;-4.518;2022-08-19T03:39:20;25.73;56.72
74087;SHT30;62445;48.406;-4.518;2022-08-19T03:41:47;25.72;56.74
74087;SHT30;62445;48.406;-4.518;2022-08-19T03:44:21;25.72;56.68
74087;SHT30;62445;48.406;-4.518;2022-08-19T03:46:49;25.72;56.70
74087;SHT30;62445;48.406;-4.518;2022-08-19T03:49:16;25.72;56.65
74087;SHT30;62445;48.406;-4.518;2022-08-19T03:51:43;25.72;56.67
74087;SHT30;62445;48.406;-4.518;2022-08-19T03:54:11;25.73;56.63
74087;SHT30;62445;48.406;-4.518;2022-08-19T03:56:39;25.69;56.68
74087;SHT30;62445;48.406;-4.518;2022-08-19T03:59:07;25.72;56.67
74087;SHT30;62445;48.406;-4.518;2022-08-19T04:01:34;25.69;56.66
74087;SHT30;62445;48.406;-4.518;2022-08-19T04:04:00;25.69;56.69
74087;SHT30;62445;48.406;-4.518;2022-08-19T04:06:30;25.69;56.62
74087;SHT30;62445;48.406;-4.518;2022-08-19T04:08:57;25.66;56.67
74087;SHT30;62445;48.406;-4.518;2022-08-19T04:11:28;25.68;56.59
74087;SHT30;62445;48.406;-4.518;2022-08-19T04:13:55;25.69;56.66
74087;SHT30;62445;48.406;-4.518;2022-08-19T04:16:23;25.70;56.59
74087;SHT30;62445;48.406;-4.518;2022-08-19T04:18:49;25.69;56.60
74087;SHT30;62445;48.406;-4.518;2022-08-19T04:21:21;25.68;56.57
74087;SHT30;62445;48.406;-4.518;2022-08-19T04:23:47;25.66;56.62
74087;SHT30;62445;48.406;-4.518;2022-08-19T04:26:19;25.69;56.54
74087;SHT30;62445;48.406;-4.518;2022-08-19T04:28:45;25.66;56.59
74087;SHT30;62445;48.406;-4.518;2022-08-19T04:31:16;25.68;56.54
74087;SHT30;62445;48.406;-4.518;2022-08-19T04:33:42;25.68;56.59
74087;SHT30;62445;48.406;-4.518;2022-08-19T04:36:14;25.68;56.50
74087;SHT30;62445;48.406;-4.518;2022-08-19T04:38:41;25.69;56.53
74087;SHT30;62445;48.406;-4.518;2022-08-19T04:41:06;25.66;56.53
74087;SHT30;62445;48.406;-4.518;2022-08-19T04:43:50;25.66;56.51
74087;SHT30;62445;48.406;-4.518;2022-08-19T04:46:16;25.66;56.54
74087;SHT30;62445;48.406;-4.518;2022-08-19T04:48:42;25.65;56.48
74087;SHT30;62445;48.406;-4.518;2022-08-19T04:51:10;25.63;56.52
74087;SHT30;62445;48.406;-4.518;2022-08-19T04:53:38;25.65;56.49
74087;SHT30;62445;48.406;-4.518;2022-08-19T04:56:10;25.66;56.51
74087;SHT30;62445;48.406;-4.518;2022-08-19T04:58:37;25.66;56.51
74087;SHT30;62445;48.406;-4.518;2022-08-19T05:01:03;25.65;56.49
74087;SHT30;62445;48.406;-4.518;2022-08-19T05:03:29;25.65;56.53
74087;SHT30;62445;48.406;-4.518;2022-08-19T05:06:07;25.66;56.50
74087;SHT30;62445;48.406;-4.518;2022-08-19T05:08:34;25.65;56.46
74087;SHT30;62445;48.406;-4.518;2022-08-19T05:11:00;25.65;56.49
74087;SHT30;62445;48.406;-4.518;2022-08-19T05:13:26;25.66;56.54
74087;SHT30;62445;48.406;-4.518;2022-08-19T05:15:58;25.65;56.47
74087;SHT30;62445;48.406;-4.518;2022-08-19T05:18:25;25.65;56.52
74087;SHT30;62445;48.406;-4.518;2022-08-19T05:21:12;25.63;56.51
74087;SHT30;62445;48.406;-4.518;2022-08-19T05:23:56;25.65;56.52
74087;SHT30;62445;48.406;-4.518;2022-08-19T05:26:23;25.63;56.47
74087;SHT30;62445;48.406;-4.518;2022-08-19T05:28:51;25.62;56.57
74087;SHT30;62445;48.406;-4.518;2022-08-19T05:31:17;25.61;56.48
74087;SHT30;62445;48.406;-4.518;2022-08-19T05:33:42;25.63;56.54
74087;SHT30;62445;48.406;-4.518;2022-08-19T05:36:08;25.62;56.53
74087;SHT30;62445;48.406;-4.518;2022-08-19T05:38:34;25.61;56.48
74087;SHT30;62445;48.406;-4.518;2022-08-19T05:41:05;25.63;56.50
74087;SHT30;62445;48.406;-4.518;2022-08-19T05:43:31;25.62;56.48
74087;SHT30;62445;48.406;-4.518;2022-08-19T05:45:56;25.62;56.49
74087;SHT30;62445;48.406;-4.518;2022-08-19T05:48:22;25.62;56.50
74087;SHT30;62445;48.406;-4.518;2022-08-19T05:50:47;25.63;56.53
74087;SHT30;62445;48.406;-4.518;2022-08-19T05:53:16;25.62;56.50
74087;SHT30;62445;48.406;-4.518;2022-08-19T05:55:41;25.61;56.53
74087;SHT30;62445;48.406;-4.518;2022-08-19T05:58:07;25.61;56.49
74087;SHT30;62445;48.406;-4.518;2022-08-19T06:00:34;25.61;56.53
74087;SHT30;62445;48.406;-4.518;2022-08-19T06:02:59;25.61;56.59
74087;SHT30;62445;48.406;-4.518;2022-08-19T06:05:31;25.61;56.47
74087;SHT30;62445;48.406;-4.518;2022-08-19T06:07:57;25.59;56.53
74087;SHT30;62445;48.406;-4.518;2022-08-19T06:10:24;25.61;56.50
74087;SHT30;62445;48.406;-4.518;2022-08-19T06:12:50;25.61;56.54
74087;SHT30;62445;48.406;-4.518;2022-08-19T06:15:15;25.59;56.54
74087;SHT30;62445;48.406;-4.518;2022-08-19T06:17:41;25.59;56.53
74087;SHT30;62445;48.406;-4.518;2022-08-19T06:20:12;25.57;56.55
74087;SHT30;62445;48.406;-4.518;2022-08-19T06:22:46;25.59;56.50
74087;SHT30;62445;48.406;-4.518;2022-08-19T06:25:14;25.58;56.50
74087;SHT30;62445;48.406;-4.518;2022-08-19T06:27:40;25.58;56.55
74087;SHT30;62445;48.406;-4.518;2022-08-19T06:30:06;25.57;56.53
74087;SHT30;62445;48.406;-4.518;2022-08-19T06:32:31;25.58;56.73
74087;SHT30;62445;48.406;-4.518;2022-08-19T06:34:57;25.57;56.58
74087;SHT30;62445;48.406;-4.518;2022-08-19T06:37:23;25.58;56.70
74087;SHT30;62445;48.406;-4.518;2022-08-19T06:39:49;25.57;56.60
74087;SHT30;62445;48.406;-4.518;2022-08-19T06:42:15;25.59;56.78
74087;SHT30;62445;48.406;-4.518;2022-08-19T06:44:46;25.55;56.62
74087;SHT30;62445;48.406;-4.518;2022-08-19T06:47:15;25.58;56.65
74087;SHT30;62445;48.406;-4.518;2022-08-19T06:49:41;25.57;56.81
74087;SHT30;62445;48.406;-4.518;2022-08-19T06:52:07;25.58;56.71
74087;SHT30;62445;48.406;-4.518;2022-08-19T06:54:32;25.58;56.79
74087;SHT30;62445;48.406;-4.518;2022-08-19T06:57:00;25.58;56.67
74087;SHT30;62445;48.406;-4.518;2022-08-19T06:59:30;25.55;56.70
74087;SHT30;62445;48.406;-4.518;2022-08-19T07:01:59;25.53;56.73
74087;SHT30;62445;48.406;-4.518;2022-08-19T07:04:28;25.57;56.71
74087;SHT30;62445;48.406;-4.518;2022-08-19T07:07:08;25.55;56.61
74087;SHT30;62445;48.406;-4.518;2022-08-19T07:09:40;25.57;56.70
74087;SHT30;62445;48.406;-4.518;2022-08-19T07:12:09;25.53;56.72
74087;SHT30;62445;48.406;-4.518;2022-08-19T07:14:36;25.57;56.65
74087;SHT30;62445;48.406;-4.518;2022-08-19T07:17:04;25.52;56.71
74087;SHT30;62445;48.406;-4.518;2022-08-19T07:19:31;25.55;56.67
74087;SHT30;62445;48.406;-4.518;2022-08-19T07:21:57;25.55;56.81
74087;SHT30;62445;48.406;-4.518;2022-08-19T07:24:26;25.55;56.71
74087;SHT30;62445;48.406;-4.518;2022-08-19T07:26:56;25.53;56.74
74087;SHT30;62445;48.406;-4.518;2022-08-19T07:29:26;25.53;56.74
74087;SHT30;62445;48.406;-4.518;2022-08-19T07:31:53;25.53;56.75
74087;SHT30;62445;48.406;-4.518;2022-08-19T07:34:21;25.52;56.74
74087;SHT30;62445;48.406;-4.518;2022-08-19T07:36:47;25.52;56.76
74087;SHT30;62445;48.406;-4.518;2022-08-19T07:39:20;25.52;57.12
74087;SHT30;62445;48.406;-4.518;2022-08-19T07:41:47;25.53;56.90
74087;SHT30;62445;48.406;-4.518;2022-08-19T07:44:14;25.57;56.84
74087;SHT30;62445;48.406;-4.518;2022-08-19T07:46:42;25.57;56.75
74087;SHT30;62445;48.406;-4.518;2022-08-19T07:49:10;25.59;56.73
74087;SHT30;62445;48.406;-4.518;2022-08-19T07:51:49;25.61;56.73
74087;SHT30;62445;48.406;-4.518;2022-08-19T07:54:15;25.59;56.86
74087;SHT30;62445;48.406;-4.518;2022-08-19T07:56:40;25.61;56.80
74087;SHT30;62445;48.406;-4.518;2022-08-19T07:59:06;25.62;56.75
74087;SHT30;62445;48.406;-4.518;2022-08-19T08:01:33;25.59;56.67
74087;SHT30;62445;48.406;-4.518;2022-08-19T08:03:58;25.63;56.61
74087;SHT30;62445;48.406;-4.518;2022-08-19T08:06:42;25.61;56.64
74087;SHT30;62445;48.406;-4.518;2022-08-19T08:09:32;25.62;56.53
74087;SHT30;62445;48.406;-4.518;2022-08-19T08:12:05;25.66;56.56
74087;SHT30;62445;48.406;-4.518;2022-08-19T08:14:44;25.63;56.42
74087;SHT30;62445;48.406;-4.518;2022-08-19T08:17:12;25.66;56.50
74087;SHT30;62445;48.406;-4.518;2022-08-19T08:19:38;25.65;56.55
74087;SHT30;62445;48.406;-4.518;2022-08-19T08:22:06;25.63;56.50
74087;SHT30;62445;48.406;-4.518;2022-08-19T08:24:33;25.63;56.48
74087;SHT30;62445;48.406;-4.518;2022-08-19T08:27:00;25.68;56.53
74087;SHT30;62445;48.406;-4.518;2022-08-19T08:29:30;25.66;56.47
74087;SHT30;62445;48.406;-4.518;2022-08-19T08:31:56;25.66;56.41
74087;SHT30;62445;48.406;-4.518;2022-08-19T08:34:22;25.69;56.49
74087;SHT30;62445;48.406;-4.518;2022-08-19T08:36:48;25.69;56.37
74087;SHT30;62445;48.406;-4.518;2022-08-19T08:39:19;25.70;56.44
74087;SHT30;62445;48.406;-4.518;2022-08-19T08:44:46;25.75;56.26
74087;SHT30;62445;48.406;-4.518;2022-08-19T08:47:18;25.78;56.27
74087;SHT30;62445;48.406;-4.518;2022-08-19T08:49:55;25.76;56.20
74087;SHT30;62445;48.406;-4.518;2022-08-19T08:52:36;25.76;56.26
74087;SHT30;62445;48.406;-4.518;2022-08-19T08:55:09;25.75;56.19
74087;SHT30;62445;48.406;-4.518;2022-08-19T08:57:39;25.79;56.20
74087;SHT30;62445;48.406;-4.518;2022-08-19T09:00:11;25.78;56.18
74087;SHT30;62445;48.406;-4.518;2022-08-19T09:02:39;25.78;56.20
74087;SHT30;62445;48.406;-4.518;2022-08-19T09:05:05;25.75;56.21
74087;SHT30;62445;48.406;-4.518;2022-08-19T09:10:29;25.78;56.17
74087;SHT30;62445;48.406;-4.518;2022-08-19T09:13:31;25.80;56.15
74087;SHT30;62445;48.406;-4.518;2022-08-19T09:16:05;25.82;56.15
74087;SHT30;62445;48.406;-4.518;2022-08-19T09:21:09;25.85;56.08
74087;SHT30;62445;48.406;-4.518;2022-08-19T09:23:36;25.85;55.99
74087;SHT30;62445;48.406;-4.518;2022-08-19T09:26:07;25.88;55.92
74087;SHT30;62445;48.406;-4.518;2022-08-19T09:28:33;25.89;55.93
74087;SHT30;62445;48.406;-4.518;2022-08-19T09:30:58;25.89;55.94
74087;SHT30;62445;48.406;-4.518;2022-08-19T09:33:24;25.88;55.95
74087;SHT30;62445;48.406;-4.518;2022-08-19T09:35:49;25.85;55.99
74087;SHT30;62445;48.406;-4.518;2022-08-19T09:38:15;25.88;55.98
74087;SHT30;62445;48.406;-4.518;2022-08-19T09:40:40;25.86;55.91
74087;SHT30;62445;48.406;-4.518;2022-08-19T09:43:06;25.90;55.88
74087;SHT30;62445;48.406;-4.518;2022-08-19T09:45:31;25.96;55.75
74087;SHT30;62445;48.406;-4.518;2022-08-19T09:47:57;26.00;55.74
74087;SHT30;62445;48.406;-4.518;2022-08-19T09:50:23;26.09;55.70
74087;SHT30;62445;48.406;-4.518;2022-08-19T09:52:49;26.12;55.68
74087;SHT30;62445;48.406;-4.518;2022-08-19T09:55:15;26.14;55.46
74087;SHT30;62445;48.406;-4.518;2022-08-19T09:57:41;26.20;55.31
74087;SHT30;62445;48.406;-4.518;2022-08-19T10:00:08;26.24;55.14
74087;SHT30;62445;48.406;-4.518;2022-08-19T10:02:34;26.23;55.11
74087;SHT30;62445;48.406;-4.518;2022-08-19T10:05:00;26.26;55.07
74087;SHT30;62445;48.406;-4.518;2022-08-19T10:07:44;26.26;55.00
74087;SHT30;62445;48.406;-4.518;2022-08-19T10:10:10;26.27;55.01
74087;SHT30;62445;48.406;-4.518;2022-08-19T10:12:36;26.27;54.93
74087;SHT30;62445;48.406;-4.518;2022-08-19T10:15:03;26.31;54.91
74087;SHT30;62445;48.406;-4.518;2022-08-19T10:17:29;26.33;54.86
74087;SHT30;62445;48.406;-4.518;2022-08-19T10:19:54;26.31;54.86
74087;SHT30;62445;48.406;-4.518;2022-08-19T10:22:20;26.31;54.84
74087;SHT30;62445;48.406;-4.518;2022-08-19T10:24:46;26.34;54.80
74087;SHT30;62445;48.406;-4.518;2022-08-19T10:27:12;26.31;54.76
74087;SHT30;62445;48.406;-4.518;2022-08-19T10:29:39;26.33;54.75
74087;SHT30;62445;48.406;-4.518;2022-08-19T10:32:06;26.33;54.72
74087;SHT30;62445;48.406;-4.518;2022-08-19T10:34:35;26.33;54.78
74087;SHT30;62445;48.406;-4.518;2022-08-19T10:37:02;26.28;54.73
74087;SHT30;62445;48.406;-4.518;2022-08-19T10:39:32;26.33;54.71
74087;SHT30;62445;48.406;-4.518;2022-08-19T10:41:58;26.33;54.67
74087;SHT30;62445;48.406;-4.518;2022-08-19T10:44:24;26.28;54.72
74087;SHT30;62445;48.406;-4.518;2022-08-19T10:46:50;26.30;54.71
74087;SHT30;62445;48.406;-4.518;2022-08-19T10:49:17;26.30;54.68
74087;SHT30;62445;48.406;-4.518;2022-08-19T10:51:44;26.30;54.65
74087;SHT30;62445;48.406;-4.518;2022-08-19T10:54:28;26.33;54.60
74087;SHT30;62445;48.406;-4.518;2022-08-19T10:57:14;26.28;54.71
74087;SHT30;62445;48.406;-4.518;2022-08-19T10:59:39;26.24;54.73
74087;SHT30;62445;48.406;-4.518;2022-08-19T11:02:09;26.27;54.78
74087;SHT30;62445;48.406;-4.518;2022-08-19T11:04:36;26.21;54.89
74087;SHT30;62445;48.406;-4.518;2022-08-19T11:07:03;26.21;54.90
74087;SHT30;62445;48.406;-4.518;2022-08-19T11:09:29;26.24;54.84
74087;SHT30;62445;48.406;-4.518;2022-08-19T11:11:54;26.30;54.70
74087;SHT30;62445;48.406;-4.518;2022-08-19T11:14:22;26.34;54.52
74087;SHT30;62445;48.406;-4.518;2022-08-19T11:16:50;26.34;54.53
74087;SHT30;62445;48.406;-4.518;2022-08-19T11:19:16;26.33;54.47
74087;SHT30;62445;48.406;-4.518;2022-08-19T11:21:47;26.40;54.46
74087;SHT30;62445;48.406;-4.518;2022-08-19T11:24:19;26.38;54.36
74087;SHT30;62445;48.406;-4.518;2022-08-19T11:26:46;26.43;54.33
74087;SHT30;62445;48.406;-4.518;2022-08-19T11:29:13;26.47;54.15
74087;SHT30;62445;48.406;-4.518;2022-08-19T11:31:41;26.48;54.16
74087;SHT30;62445;48.406;-4.518;2022-08-19T11:34:09;26.48;54.13
74087;SHT30;62445;48.406;-4.518;2022-08-19T11:36:38;26.51;54.10
74087;SHT30;62445;48.406;-4.518;2022-08-19T11:39:07;26.49;54.08
74087;SHT30;62445;48.406;-4.518;2022-08-19T11:41:33;26.54;54.06
74087;SHT30;62445;48.406;-4.518;2022-08-19T11:43:59;26.54;53.96
74087;SHT30;62445;48.406;-4.518;2022-08-19T11:46:26;26.55;53.92
74087;SHT30;62445;48.406;-4.518;2022-08-19T11:48:59;26.64;53.90
74087;SHT30;62445;48.406;-4.518;2022-08-19T11:51:27;26.62;53.87
74087;SHT30;62445;48.406;-4.518;2022-08-19T11:53:54;26.65;53.75
74087;SHT30;62445;48.406;-4.518;2022-08-19T11:56:21;26.67;53.67
74087;SHT30;62445;48.406;-4.518;2022-08-19T11:58:48;26.71;53.57
74087;SHT30;62445;48.406;-4.518;2022-08-19T12:01:16;26.74;53.61
74087;SHT30;62445;48.406;-4.518;2022-08-19T12:03:44;26.75;53.55
74087;SHT30;62445;48.406;-4.518;2022-08-19T12:06:13;26.81;53.37
74087;SHT30;62445;48.406;-4.518;2022-08-19T12:08:40;26.84;53.34
74087;SHT30;62445;48.406;-4.518;2022-08-19T12:11:06;26.89;53.29
74087;SHT30;62445;48.406;-4.518;2022-08-19T12:13:35;26.94;53.17
74087;SHT30;62445;48.406;-4.518;2022-08-19T12:16:10;26.99;53.20
74087;SHT30;62445;48.406;-4.518;2022-08-19T12:18:38;26.99;53.08
74087;SHT30;62445;48.406;-4.518;2022-08-19T12:21:03;27.02;53.02
74087;SHT30;62445;48.406;-4.518;2022-08-19T12:23:29;27.12;52.85
74087;SHT30;62445;48.406;-4.518;2022-08-19T12:25:54;27.14;52.76
74087;SHT30;62445;48.406;-4.518;2022-08-19T12:28:23;27.13;52.79
74087;SHT30;62445;48.406;-4.518;2022-08-19T12:30:49;27.14;53.10
74087;SHT30;62445;48.406;-4.518;2022-08-19T12:33:18;27.17;53.10
74087;SHT30;62445;48.406;-4.518;2022-08-19T12:35:45;27.20;52.82
74087;SHT30;62445;48.406;-4.518;2022-08-19T12:38:13;27.29;52.62
74087;SHT30;62445;48.406;-4.518;2022-08-19T12:40:40;27.27;52.44
74087;SHT30;62445;48.406;-4.518;2022-08-19T12:43:08;27.30;52.83
74087;SHT30;62445;48.406;-4.518;2022-08-19T12:45:34;27.32;52.74
74087;SHT30;62445;48.406;-4.518;2022-08-19T12:48:00;27.34;52.78
74087;SHT30;62445;48.406;-4.518;2022-08-19T12:50:25;27.34;52.73
74087;SHT30;62445;48.406;-4.518;2022-08-19T12:52:51;27.36;52.72
74087;SHT30;62445;48.406;-4.518;2022-08-19T12:55:17;27.40;52.74
74087;SHT30;62445;48.406;-4.518;2022-08-19T12:57:44;27.39;52.64
74087;SHT30;62445;48.406;-4.518;2022-08-19T13:00:13;27.42;52.63
74087;SHT30;62445;48.406;-4.518;2022-08-19T13:02:42;27.47;52.56
74087;SHT30;62445;48.406;-4.518;2022-08-19T13:05:14;27.49;52.50
74087;SHT30;62445;48.406;-4.518;2022-08-19T13:07:41;27.51;52.36
74087;SHT30;62445;48.406;-4.518;2022-08-19T13:10:11;27.58;52.30
74087;SHT30;62445;48.406;-4.518;2022-08-19T13:12:37;27.61;52.19
74087;SHT30;62445;48.406;-4.518;2022-08-19T13:15:04;27.70;52.01
74087;SHT30;62445;48.406;-4.518;2022-08-19T13:17:29;27.76;51.91
74087;SHT30;62445;48.406;-4.518;2022-08-19T13:19:55;27.77;52.02
74087;SHT30;62445;48.406;-4.518;2022-08-19T13:22:20;27.78;51.91
74087;SHT30;62445;48.406;-4.518;2022-08-19T13:24:46;27.74;51.88
74087;SHT30;62445;48.406;-4.518;2022-08-19T13:27:11;27.71;51.98
74087;SHT30;62445;48.406;-4.518;2022-08-19T13:29:36;27.68;51.94
74087;SHT30;62445;48.406;-4.518;2022-08-19T13:32:21;27.62;52.04
74087;SHT30;62445;48.406;-4.518;2022-08-19T13:35:05;27.62;52.13
74087;SHT30;62445;48.406;-4.518;2022-08-19T13:37:30;27.64;52.07
74087;SHT30;62445;48.406;-4.518;2022-08-19T13:40:19;27.62;52.05
74087;SHT30;62445;48.406;-4.518;2022-08-19T13:42:48;27.62;51.95
74087;SHT30;62445;48.406;-4.518;2022-08-19T13:45:15;27.62;51.95
74087;SHT30;62445;48.406;-4.518;2022-08-19T13:47:48;27.64;51.92
74087;SHT30;62445;48.406;-4.518;2022-08-19T13:50:17;27.64;51.96
74087;SHT30;62445;48.406;-4.518;2022-08-19T13:52:43;27.64;51.93
74087;SHT30;62445;48.406;-4.518;2022-08-19T13:55:10;27.65;51.93
74087;SHT30;62445;48.406;-4.518;2022-08-19T13:57:36;27.65;51.91
74087;SHT30;62445;48.406;-4.518;2022-08-19T14:00:08;27.67;51.88
74087;SHT30;62445;48.406;-4.518;2022-08-19T14:02:38;27.71;51.81
74087;SHT30;62445;48.406;-4.518;2022-08-19T14:05:05;27.71;51.81
74087;SHT30;62445;48.406;-4.518;2022-08-19T14:07:31;27.72;51.77
74087;SHT30;62445;48.406;-4.518;2022-08-19T14:09:57;27.77;51.72
74087;SHT30;62445;48.406;-4.518;2022-08-19T14:12:22;27.78;51.69
74087;SHT30;62445;48.406;-4.518;2022-08-19T14:14:48;27.84;51.54
74087;SHT30;62445;48.406;-4.518;2022-08-19T14:17:14;27.84;51.45
74087;SHT30;62445;48.406;-4.518;2022-08-19T14:19:40;27.88;51.32
74087;SHT30;62445;48.406;-4.518;2022-08-19T14:22:06;27.91;51.34
74087;SHT30;62445;48.406;-4.518;2022-08-19T14:24:31;27.94;51.22
74087;SHT30;62445;48.406;-4.518;2022-08-19T14:26:58;27.95;51.18
74087;SHT30;62445;48.406;-4.518;2022-08-19T14:29:23;27.95;51.24
74087;SHT30;62445;48.406;-4.518;2022-08-19T14:31:49;28.01;51.13
74087;SHT30;62445;48.406;-4.518;2022-08-19T14:34:14;28.02;51.01
74087;SHT30;62445;48.406;-4.518;2022-08-19T14:36:40;28.05;50.95
74087;SHT30;62445;48.406;-4.518;2022-08-19T14:39:07;28.02;50.92
74087;SHT30;62445;48.406;-4.518;2022-08-19T14:41:33;28.05;50.82
74087;SHT30;62445;48.406;-4.518;2022-08-19T14:43:59;28.04;50.87
74087;SHT30;62445;48.406;-4.518;2022-08-19T14:46:28;28.02;50.93
74087;SHT30;62445;48.406;-4.518;2022-08-19T14:48:54;27.99;51.08
74087;SHT30;62445;48.406;-4.518;2022-08-19T14:51:22;27.97;51.07
74087;SHT30;62445;48.406;-4.518;2022-08-19T14:53:48;27.97;51.12
74087;SHT30;62445;48.406;-4.518;2022-08-19T14:56:20;27.94;51.18
74087;SHT30;62445;48.406;-4.518;2022-08-19T14:58:45;27.94;51.17
74087;SHT30;62445;48.406;-4.518;2022-08-19T15:01:12;27.95;51.17
74087;SHT30;62445;48.406;-4.518;2022-08-19T15:03:38;27.92;51.11
74087;SHT30;62445;48.406;-4.518;2022-08-19T15:06:06;27.92;51.06
74087;SHT30;62445;48.406;-4.518;2022-08-19T15:08:33;27.98;51.02
74087;SHT30;62445;48.406;-4.518;2022-08-19T15:11:00;28.02;50.89
74087;SHT30;62445;48.406;-4.518;2022-08-19T15:13:27;28.12;50.67
74087;SHT30;62445;48.406;-4.518;2022-08-19T15:15:54;28.38;50.18
74087;SHT30;62445;48.406;-4.518;2022-08-19T15:18:20;28.67;49.55
74087;SHT30;62445;48.406;-4.518;2022-08-19T15:20:47;29.12;48.81
74087;SHT30;62445;48.406;-4.518;2022-08-19T15:23:17;29.80;47.48
74087;SHT30;62445;48.406;-4.518;2022-08-19T15:25:43;30.86;45.08
74087;SHT30;62445;48.406;-4.518;2022-08-19T15:28:10;32.25;42.33